Terminal Aerodrome Forecast
Issued by NWS

Home | Current Version | Previous Version | Text Only | Print | Product List | Glossary On
Versions: 1 2 3 4 5 6 7 8 9 10 11 12 13
000
FTUS44 KBMX 301100
TAFMGM
TAF
KMGM 301135Z 3012/3112 14004KT P6SM BKN120
      TEMPO 3012/3014 4SM BR BKN015
     FM301500 19005KT P6SM SCT030 BKN100
     FM301800 20010KT P6SM VCTS BKN050CB BKN100
     FM302300 VRB03KT P6SM BKN040 BKN200=

USA.gov is the U.S. government's official web portal to all federal, state and local government web resources and services.